Time;durP1;ratioP1;P1;durP2;ratioP2;P2;SDS_P1;SDS_P2;PMS_P1;PMS_P2;Temp;Humidity;BMP_temperature;BMP_pressure;BME280_temperature;BME280_humidity;BME280_pressure;Samples;Min_cycle;Max_cycle;Signal;HPM_P1;HPM_P2
2022/11/13 00:01:25;;;;;;;14.40;7.57;;;9.70;80.40;;;;;;5055055;28;20077;-74
2022/11/13 00:03:51;;;;;;;11.50;6.40;;;9.80;80.50;;;;;;5054982;28;20033;-74
2022/11/13 00:06:17;;;;;;;10.80;6.45;;;9.80;80.20;;;;;;5054931;28;20027;-74
2022/11/13 00:08:44;;;;;;;12.20;6.78;;;9.80;80.00;;;;;;5054812;28;20034;-74
2022/11/13 00:11:17;;;;;;;13.00;6.85;;;9.70;79.90;;;;;;5054871;28;20056;-74
2022/11/13 00:13:42;;;;;;;11.68;6.72;;;9.70;80.00;;;;;;5021630;28;20025;-74
2022/11/13 00:16:14;;;;;;;10.45;6.72;;;9.70;79.90;;;;;;5054713;28;20029;-74
2022/11/13 00:18:40;;;;;;;12.20;6.65;;;9.60;79.80;;;;;;5054628;28;20056;-74
2022/11/13 00:21:07;;;;;;;13.35;6.80;;;9.50;79.70;;;;;;5054605;28;20029;-74
2022/11/13 00:23:34;;;;;;;14.27;7.35;;;9.50;80.10;;;;;;5054582;28;20018;-74
2022/11/13 00:26:04;;;;;;;14.02;6.82;;;9.40;80.30;;;;;;5054585;28;20018;-74
2022/11/13 00:28:30;;;;;;;13.82;7.32;;;9.50;80.60;;;;;;5037016;28;20025;-74
2022/11/13 00:31:00;;;;;;;13.32;7.50;;;9.50;80.60;;;;;;5054453;28;20141;-74
2022/11/13 00:33:26;;;;;;;14.07;6.97;;;9.60;80.40;;;;;;5054426;28;20036;-74
2022/11/13 00:35:51;;;;;;;14.60;7.20;;;9.60;79.90;;;;;;5054179;28;20025;-74
2022/11/13 00:38:17;;;;;;;13.88;7.30;;;9.60;79.70;;;;;;5036910;28;20040;-74
2022/11/13 00:40:43;;;;;;;12.10;7.00;;;9.60;79.70;;;;;;5054293;28;20021;-73
2022/11/13 00:43:08;;;;;;;12.77;7.00;;;9.60;79.70;;;;;;5036790;28;20481;-74
2022/11/13 00:45:34;;;;;;;13.90;6.60;;;9.60;79.70;;;;;;5054146;28;20037;-74
2022/11/13 00:47:59;;;;;;;12.60;6.47;;;9.60;79.40;;;;;;5036885;28;20038;-74
2022/11/13 00:50:26;;;;;;;10.93;6.13;;;9.50;79.40;;;;;;5054062;28;20044;-74
2022/11/13 00:52:52;;;;;;;14.50;6.80;;;9.40;79.60;;;;;;5054038;28;20034;-74
2022/11/13 00:55:17;;;;;;;11.55;7.03;;;9.30;79.40;;;;;;5054139;28;20477;-74
2022/11/13 00:57:43;;;;;;;10.95;6.45;;;9.30;79.70;;;;;;5036322;28;20037;-74
2022/11/13 01:00:09;;;;;;;14.00;6.32;;;9.30;79.50;;;;;;5053441;28;20089;-74
2022/11/13 01:02:35;;;;;;;11.55;6.15;;;9.30;79.70;;;;;;5053885;28;20021;-74
2022/11/13 01:05:01;;;;;;;11.30;6.68;;;9.20;79.80;;;;;;5020201;28;20040;-74
2022/11/13 01:07:26;;;;;;;12.00;6.43;;;9.10;80.00;;;;;;5036189;28;20093;-74
2022/11/13 01:09:52;;;;;;;11.60;6.18;;;9.10;80.10;;;;;;5036352;28;20033;-74
2022/11/13 01:12:18;;;;;;;11.55;6.50;;;9.10;79.70;;;;;;5036325;28;20034;-74
2022/11/13 01:14:43;;;;;;;9.73;5.90;;;9.10;79.40;;;;;;5053665;28;20026;-74
2022/11/13 01:17:09;;;;;;;10.32;6.15;;;9.10;79.00;;;;;;5053625;28;20025;-74
2022/11/13 01:19:35;;;;;;;12.57;6.00;;;9.00;79.20;;;;;;5053517;28;20033;-74
2022/11/13 01:22:00;;;;;;;14.10;6.65;;;9.00;79.50;;;;;;5053568;28;20025;-74
2022/11/13 01:24:26;;;;;;;11.48;6.97;;;9.00;79.60;;;;;;5019742;28;20021;-74
2022/11/13 01:26:51;;;;;;;13.65;6.90;;;9.00;79.80;;;;;;5035976;28;20060;-74
2022/11/13 01:29:17;;;;;;;10.25;6.07;;;9.10;79.90;;;;;;5036022;28;20056;-74
2022/11/13 01:31:42;;;;;;;12.55;7.00;;;9.20;79.90;;;;;;5019506;28;20049;-74
2022/11/13 01:34:08;;;;;;;13.00;6.63;;;9.20;79.70;;;;;;5053389;28;20061;-74
2022/11/13 01:36:34;;;;;;;11.15;6.43;;;9.10;79.50;;;;;;5053131;28;20077;-74
2022/11/13 01:38:59;;;;;;;12.88;6.82;;;9.10;79.70;;;;;;5053221;28;20040;-74
2022/11/13 01:41:33;;;;;;;11.07;6.20;;;9.10;79.80;;;;;;5053280;28;20088;-74
2022/11/13 01:43:59;;;;;;;10.75;6.32;;;9.10;79.40;;;;;;5053300;28;20081;-73
2022/11/13 01:46:33;;;;;;;10.23;6.18;;;9.10;79.50;;;;;;5035783;28;20081;-74
2022/11/13 01:49:16;;;;;;;11.73;6.32;;;9.10;79.40;;;;;;5053193;28;20057;-74
2022/11/13 01:51:49;;;;;;;10.93;6.40;;;9.10;79.50;;;;;;5053232;28;20030;-74
2022/11/13 01:54:44;;;;;;;11.27;6.10;;;9.20;79.60;;;;;;5053171;28;20032;-74
2022/11/13 01:57:10;;;;;;;10.73;5.95;;;9.20;79.50;;;;;;5053183;28;20065;-73
2022/11/13 01:59:42;;;;;;;8.70;5.32;;;9.20;79.10;;;;;;5053032;28;20036;-74
2022/11/13 02:02:08;;;;;;;;;;;9.20;79.20;;;;;;5053485;28;20025;-74
2022/11/13 02:04:34;;;;;;;11.73;6.60;;;9.20;79.40;;;;;;5019362;28;19909;-73
2022/11/13 02:07:03;;;;;;;10.90;6.32;;;9.20;79.60;;;;;;5053024;28;20029;-74
2022/11/13 02:09:39;;;;;;;12.00;6.05;;;9.20;79.70;;;;;;5052919;28;20068;-74
2022/11/13 02:12:08;;;;;;;10.52;6.03;;;9.20;79.50;;;;;;5036469;28;20021;-74
2022/11/13 02:14:36;;;;;;;11.60;5.65;;;9.20;79.30;;;;;;5057048;28;20028;-74
2022/11/13 02:17:07;;;;;;;9.25;6.00;;;9.20;79.20;;;;;;5056970;28;20053;-74
2022/11/13 02:19:41;;;;;;;8.68;5.60;;;9.20;78.80;;;;;;5056916;28;20057;-74
2022/11/13 02:22:14;;;;;;;11.35;6.03;;;9.10;79.00;;;;;;5055929;28;20029;-74
2022/11/13 02:24:43;;;;;;;9.65;5.88;;;9.00;79.20;;;;;;5056883;28;20052;-74
2022/11/13 02:27:38;;;;;;;11.13;6.10;;;9.00;79.30;;;;;;5056801;28;20049;-74
2022/11/13 02:30:14;;;;;;;9.85;6.05;;;9.00;79.30;;;;;;5037483;28;20068;-74
2022/11/13 02:32:45;;;;;;;9.95;6.22;;;9.00;79.30;;;;;;5039152;28;20026;-74
2022/11/13 02:35:13;;;;;;;13.77;6.70;;;9.00;79.40;;;;;;5056680;28;20032;-74
2022/11/13 02:37:38;;;;;;;11.35;6.68;;;9.00;79.50;;;;;;5056379;28;20052;-74
2022/11/13 02:40:05;;;;;;;11.02;6.22;;;9.00;79.70;;;;;;5039055;28;20029;-74
2022/11/13 02:42:30;;;;;;;11.40;5.97;;;9.00;79.90;;;;;;5038874;28;20022;-74
2022/11/13 02:44:56;;;;;;;11.38;6.43;;;9.00;80.70;;;;;;5039062;28;20065;-74
2022/11/13 02:47:21;;;;;;;8.75;5.72;;;8.90;79.80;;;;;;5039044;28;20041;-74
2022/11/13 02:49:47;;;;;;;10.85;6.10;;;8.90;79.90;;;;;;5056528;28;20025;-74
2022/11/13 02:52:12;;;;;;;11.15;6.03;;;8.90;80.00;;;;;;5038899;28;20026;-74
2022/11/13 02:54:38;;;;;;;10.02;6.47;;;9.00;80.20;;;;;;5038912;28;20060;-74
2022/11/13 02:57:04;;;;;;;10.13;5.82;;;9.00;80.10;;;;;;5038856;28;20040;-74
2022/11/13 02:59:29;;;;;;;10.98;6.05;;;9.00;79.90;;;;;;5038680;28;20033;-74
2022/11/13 03:01:55;;;;;;;15.63;7.10;;;9.00;79.80;;;;;;5022439;28;20030;-74
2022/11/13 03:04:20;;;;;;;12.13;6.78;;;9.00;79.90;;;;;;5022375;28;20022;-74
2022/11/13 03:06:46;;;;;;;13.48;6.55;;;9.00;79.90;;;;;;5038665;28;20065;-74
2022/11/13 03:09:12;;;;;;;10.85;6.38;;;9.10;79.90;;;;;;5055953;28;20038;-74
2022/11/13 03:11:37;;;;;;;13.50;6.72;;;9.10;79.90;;;;;;5055980;28;20041;-74
2022/11/13 03:14:03;;;;;;;13.48;7.05;;;9.10;79.90;;;;;;5038489;28;20146;-74
2022/11/13 03:16:28;;;;;;;14.88;7.05;;;9.10;80.00;;;;;;5038542;28;20029;-74
2022/11/13 03:18:55;;;;;;;12.50;6.80;;;9.10;80.00;;;;;;5038365;28;20034;-74
2022/11/13 03:21:20;;;;;;;14.45;7.00;;;9.10;80.00;;;;;;5038699;28;20035;-74
2022/11/13 03:23:46;;;;;;;14.60;7.10;;;9.10;80.10;;;;;;5055269;28;20029;-74
2022/11/13 03:26:15;;;;;;;13.05;7.07;;;9.10;80.10;;;;;;5038279;28;20068;-74
2022/11/13 03:28:41;;;;;;;14.43;7.75;;;9.20;80.10;;;;;;5055674;28;20089;-74
2022/11/13 03:31:07;;;;;;;11.00;6.95;;;9.10;79.90;;;;;;5055744;28;20033;-74
2022/11/13 03:33:33;;;;;;;14.45;7.25;;;9.10;79.90;;;;;;5038089;28;20044;-74
2022/11/13 03:35:59;;;;;;;14.27;7.63;;;9.10;79.80;;;;;;5055356;28;20068;-74
2022/11/13 03:38:25;;;;;;;12.85;7.22;;;9.10;79.90;;;;;;5021530;28;20025;-74
2022/11/13 03:40:50;;;;;;;11.85;6.68;;;9.20;79.90;;;;;;5055437;28;20025;-74
2022/11/13 03:43:16;;;;;;;16.73;7.43;;;9.20;79.80;;;;;;5055414;28;20028;-74
2022/11/13 03:45:46;;;;;;;13.70;7.50;;;9.20;79.70;;;;;;5037860;28;20030;-74
2022/11/13 03:48:13;;;;;;;14.07;6.93;;;9.20;79.50;;;;;;5055326;28;20032;-74
2022/11/13 03:50:41;;;;;;;14.15;7.50;;;9.20;79.50;;;;;;5055311;28;20080;-74
2022/11/13 03:53:06;;;;;;;12.52;6.93;;;9.20;79.50;;;;;;5038111;28;20034;-74
2022/11/13 03:55:32;;;;;;;11.60;6.88;;;9.20;79.40;;;;;;5055134;28;20041;-74
2022/11/13 03:57:58;;;;;;;12.40;6.85;;;9.20;79.40;;;;;;5055053;28;20069;-74
2022/11/13 04:00:23;;;;;;;10.40;6.80;;;9.30;79.30;;;;;;5055069;28;20018;-74
2022/11/13 04:02:49;;;;;;;14.48;7.28;;;9.30;79.10;;;;;;5055048;28;20044;-74
2022/11/13 04:05:15;;;;;;;12.02;7.07;;;9.30;78.90;;;;;;5037433;28;20034;-74
2022/11/13 04:07:40;;;;;;;11.68;7.07;;;9.30;78.80;;;;;;5054856;28;20017;-74
2022/11/13 04:10:06;;;;;;;12.27;6.93;;;9.30;78.80;;;;;;5054921;28;20034;-74
2022/11/13 04:12:32;;;;;;;13.98;7.60;;;9.30;78.80;;;;;;5054859;28;20093;-74
2022/11/13 04:14:57;;;;;;;14.20;6.88;;;9.30;78.90;;;;;;5037533;28;20022;-74
2022/11/13 04:17:23;;;;;;;14.57;7.30;;;9.30;78.90;;;;;;5054714;28;20029;-74
2022/11/13 04:19:48;;;;;;;14.23;7.35;;;9.30;78.80;;;;;;5054726;28;20037;-74
2022/11/13 04:22:14;;;;;;;14.38;7.60;;;9.30;78.70;;;;;;5054649;28;20032;-74
2022/11/13 04:24:40;;;;;;;10.30;6.50;;;9.30;78.60;;;;;;5037226;28;20032;-74
2022/11/13 04:27:05;;;;;;;14.70;7.03;;;9.30;78.40;;;;;;5037112;28;20022;-74
2022/11/13 04:29:32;;;;;;;13.15;6.22;;;9.30;78.40;;;;;;5037076;28;20443;-74
2022/11/13 04:31:57;;;;;;;12.05;7.32;;;9.30;78.30;;;;;;5037181;28;20026;-74
2022/11/13 04:34:23;;;;;;;13.70;7.15;;;9.20;78.40;;;;;;5053756;28;20033;-74
2022/11/13 04:36:48;;;;;;;11.73;7.10;;;9.20;78.40;;;;;;5036649;28;20057;-74
2022/11/13 04:39:14;;;;;;;11.07;6.25;;;9.20;78.30;;;;;;5036877;28;20060;-74
2022/11/13 04:44:23;;;;;;;10.75;6.32;;;9.20;78.20;;;;;;5025631;28;20068;-74
2022/11/13 04:46:49;;;;;;;13.18;7.18;;;9.10;78.30;;;;;;5036779;28;20505;-74
2022/11/13 04:49:15;;;;;;;10.20;7.03;;;9.10;78.40;;;;;;5054130;28;20037;-74
2022/11/13 04:51:40;;;;;;;15.70;7.05;;;9.10;78.30;;;;;;5054103;28;20029;-74
2022/11/13 04:54:06;;;;;;;13.20;6.70;;;9.00;78.30;;;;;;5036684;28;20040;-74
2022/11/13 04:56:31;;;;;;;9.82;6.47;;;9.00;78.30;;;;;;5053994;28;20072;-74
2022/11/13 04:58:57;;;;;;;12.57;6.72;;;8.90;78.20;;;;;;5020147;28;20038;-74
2022/11/13 05:01:22;;;;;;;12.82;7.03;;;8.80;78.10;;;;;;5053960;28;20033;-73
2022/11/13 05:03:48;;;;;;;10.80;6.18;;;8.80;78.30;;;;;;5053877;28;20018;-74
2022/11/13 05:06:14;;;;;;;11.13;6.25;;;8.70;78.60;;;;;;5053821;28;20465;-74
2022/11/13 05:08:39;;;;;;;11.73;7.00;;;8.70;78.40;;;;;;5036343;28;20033;-74
2022/11/13 05:11:05;;;;;;;14.02;7.05;;;8.60;78.50;;;;;;5036276;28;20033;-74
2022/11/13 05:13:33;;;;;;;12.77;7.28;;;8.60;79.40;;;;;;5036241;28;20037;-74
2022/11/13 05:16:09;;;;;;;13.73;7.43;;;8.60;78.60;;;;;;5052766;28;20041;-74
2022/11/13 05:18:37;;;;;;;12.88;7.32;;;8.50;78.50;;;;;;5036079;28;20026;-74
2022/11/13 05:21:03;;;;;;;14.10;7.50;;;8.50;78.70;;;;;;5036090;28;20052;-74
2022/11/13 05:23:29;;;;;;;15.63;7.70;;;8.50;78.80;;;;;;5053557;28;20029;-74
2022/11/13 05:26:10;;;;;;;16.40;8.10;;;8.50;80.00;;;;;;5053633;28;20089;-74
2022/11/13 05:28:36;;;;;;;14.30;7.30;;;8.50;79.20;;;;;;5053532;28;20032;-74
2022/11/13 05:31:13;;;;;;;15.50;7.53;;;8.50;79.20;;;;;;5053440;28;20036;-74
2022/11/13 05:33:39;;;;;;;13.63;7.95;;;8.50;79.30;;;;;;5036013;28;20033;-74
2022/11/13 05:36:12;;;;;;;14.32;7.70;;;8.60;79.40;;;;;;5053196;28;20051;-74
2022/11/13 05:38:37;;;;;;;11.10;7.07;;;8.60;79.30;;;;;;5053463;28;20044;-74
2022/11/13 05:41:06;;;;;;;14.00;7.03;;;8.60;79.20;;;;;;5035837;28;20025;-74
2022/11/13 05:43:32;;;;;;;14.88;7.18;;;8.60;79.20;;;;;;5053324;28;20045;-74
2022/11/13 05:46:03;;;;;;;13.15;7.30;;;8.60;78.90;;;;;;5053118;28;20018;-74
2022/11/13 05:48:31;;;;;;;12.57;6.80;;;8.50;78.80;;;;;;5035897;28;20033;-74
2022/11/13 05:51:05;;;;;;;10.77;6.32;;;8.60;78.90;;;;;;5053188;28;20076;-74
2022/11/13 05:53:32;;;;;;;12.55;6.38;;;8.60;78.90;;;;;;5053218;28;20072;-74
2022/11/13 05:56:22;;;;;;;14.13;7.25;;;8.60;78.90;;;;;;5053141;28;20092;-74
2022/11/13 05:58:49;;;;;;;11.93;6.50;;;8.60;78.80;;;;;;5035624;28;20025;-74
2022/11/13 06:01:27;;;;;;;10.65;6.60;;;8.60;78.80;;;;;;5035705;28;20018;-74
2022/11/13 06:03:55;;;;;;;11.25;6.95;;;8.70;78.70;;;;;;5053120;28;20022;-74
2022/11/13 06:06:21;;;;;;;11.02;6.70;;;8.60;78.60;;;;;;5035538;28;20026;-74
2022/11/13 06:08:48;;;;;;;11.07;6.30;;;8.70;78.50;;;;;;5052961;28;20046;-74
2022/11/13 06:11:20;;;;;;;11.98;6.43;;;8.70;78.50;;;;;;5053035;28;20030;-74
2022/11/13 06:13:46;;;;;;;13.10;6.60;;;8.70;78.40;;;;;;5053040;28;20026;-74
2022/11/13 06:16:26;;;;;;;12.07;6.78;;;8.60;78.20;;;;;;5052970;28;20029;-74
2022/11/13 06:18:57;;;;;;;9.85;6.03;;;8.60;78.20;;;;;;5052888;28;20092;-74
2022/11/13 06:21:26;;;;;;;10.75;6.30;;;8.60;78.30;;;;;;5035417;28;20061;-74
2022/11/13 06:23:51;;;;;;;10.30;6.25;;;8.60;78.10;;;;;;5052874;28;20481;-74
2022/11/13 06:26:20;;;;;;;9.85;5.85;;;8.60;78.20;;;;;;5052860;28;20053;-74
2022/11/13 06:28:46;;;;;;;11.18;6.18;;;8.60;78.10;;;;;;5052805;28;20028;-74
2022/11/13 06:31:18;;;;;;;11.05;6.10;;;8.60;78.00;;;;;;5052802;28;20018;-74
2022/11/13 06:33:44;;;;;;;12.75;6.80;;;8.60;77.90;;;;;;5052879;28;20080;-74
2022/11/13 06:36:19;;;;;;;10.68;5.93;;;8.60;77.80;;;;;;5035111;28;20109;-74
2022/11/13 06:38:46;;;;;;;10.07;5.35;;;8.60;77.80;;;;;;5052752;28;20021;-74
2022/11/13 06:41:14;;;;;;;10.23;5.47;;;8.60;77.70;;;;;;5052763;28;20036;-74
2022/11/13 06:43:40;;;;;;;8.05;5.43;;;8.60;77.80;;;;;;5052732;28;20021;-74
2022/11/13 06:46:10;;;;;;;12.23;5.50;;;8.50;77.50;;;;;;5052719;28;20033;-74
2022/11/13 06:48:36;;;;;;;11.60;5.30;;;8.50;77.40;;;;;;5052709;28;20052;-74
2022/11/13 06:51:04;;;;;;;10.80;5.25;;;8.50;77.30;;;;;;5052798;28;20093;-74
2022/11/13 06:53:30;;;;;;;9.68;5.20;;;8.40;77.00;;;;;;5052669;28;20384;-74
2022/11/13 06:55:56;;;;;;;9.95;5.13;;;8.40;77.00;;;;;;5052574;28;20022;-74
2022/11/13 06:58:22;;;;;;;11.50;5.70;;;8.30;77.00;;;;;;5053848;28;20049;-74
2022/11/13 07:00:48;;;;;;;9.52;5.45;;;8.30;77.20;;;;;;5038675;28;20381;-74
2022/11/13 07:03:18;;;;;;;9.13;5.15;;;8.30;77.20;;;;;;5056152;28;20089;-74
2022/11/13 07:05:44;;;;;;;9.13;5.10;;;8.40;77.20;;;;;;5056108;28;20093;-74
2022/11/13 07:08:10;;;;;;;9.23;4.90;;;8.40;77.20;;;;;;5055929;28;20034;-74
2022/11/13 07:10:36;;;;;;;9.77;5.35;;;8.40;77.10;;;;;;5056077;28;20033;-74
2022/11/13 07:13:01;;;;;;;9.68;5.43;;;8.40;77.10;;;;;;5038420;28;20042;-74
2022/11/13 07:15:27;;;;;;;8.77;5.15;;;8.40;77.40;;;;;;5038434;28;20060;-74
2022/11/13 07:17:52;;;;;;;8.60;4.72;;;8.40;77.40;;;;;;5055819;28;20037;-74
2022/11/13 07:20:18;;;;;;;9.38;5.47;;;8.40;77.40;;;;;;5056001;28;20030;-74
2022/11/13 07:22:44;;;;;;;8.85;4.95;;;8.50;77.50;;;;;;5055833;28;20079;-74
2022/11/13 07:25:10;;;;;;;9.30;5.13;;;8.50;77.50;;;;;;5055797;28;20080;-74
2022/11/13 07:27:35;;;;;;;10.57;5.32;;;8.50;77.50;;;;;;5055751;28;20022;-74
2022/11/13 07:30:01;;;;;;;6.93;4.68;;;8.50;77.40;;;;;;5055714;28;20053;-74
2022/11/13 07:32:26;;;;;;;9.07;5.38;;;8.50;77.40;;;;;;5021799;28;20048;-74
2022/11/13 07:34:52;;;;;;;8.85;5.15;;;8.60;77.40;;;;;;5055645;28;20030;-74
2022/11/13 07:37:18;;;;;;;8.35;5.22;;;8.60;77.40;;;;;;5055560;28;20049;-74
2022/11/13 07:39:43;;;;;;;7.97;4.78;;;8.60;77.90;;;;;;5055458;28;20029;-74
2022/11/13 07:42:09;;;;;;;14.13;5.82;;;8.60;77.20;;;;;;5038052;28;20075;-74
2022/11/13 07:44:35;;;;;;;10.32;5.30;;;8.70;77.20;;;;;;5055437;28;20021;-75
2022/11/13 07:47:00;;;;;;;9.35;5.03;;;8.70;77.50;;;;;;5037945;28;20022;-74
2022/11/13 07:49:26;;;;;;;10.13;4.88;;;8.70;77.30;;;;;;5021575;28;20038;-74
2022/11/13 07:51:52;;;;;;;10.00;5.68;;;8.70;77.30;;;;;;5021537;28;20025;-74
2022/11/13 07:54:17;;;;;;;8.38;5.00;;;8.70;77.40;;;;;;5005153;28;20479;-74
2022/11/13 07:56:46;;;;;;;9.13;4.38;;;8.70;77.50;;;;;;5037755;28;20033;-75
2022/11/13 07:59:12;;;;;;;9.48;4.90;;;8.70;77.50;;;;;;5055112;28;20431;-74
2022/11/13 08:01:38;;;;;;;8.82;5.43;;;8.80;77.60;;;;;;5037784;28;20030;-74
2022/11/13 08:04:04;;;;;;;9.68;5.97;;;8.70;78.50;;;;;;5037656;28;20052;-74
2022/11/13 08:06:29;;;;;;;14.73;6.20;;;8.90;77.90;;;;;;5037603;28;20041;-74
2022/11/13 08:08:55;;;;;;;13.68;6.70;;;9.20;78.00;;;;;;5036954;28;20014;-74
2022/11/13 08:11:21;;;;;;;11.25;6.07;;;9.50;77.70;;;;;;5054223;28;20032;-74
2022/11/13 08:13:47;;;;;;;11.65;6.25;;;10.10;77.50;;;;;;5037297;28;20033;-74
2022/11/13 08:16:12;;;;;;;9.85;5.60;;;11.10;76.50;;;;;;5037284;28;20033;-74
2022/11/13 08:18:38;;;;;;;10.07;5.45;;;11.90;74.70;;;;;;5037143;28;20053;-74
2022/11/13 08:21:04;;;;;;;8.35;5.63;;;12.70;72.20;;;;;;5020988;28;20044;-74
2022/11/13 08:23:31;;;;;;;8.35;5.25;;;13.40;70.20;;;;;;5054684;28;20100;-74
2022/11/13 08:25:56;;;;;;;9.32;5.80;;;13.90;67.60;;;;;;5054659;28;20036;-74
2022/11/13 08:28:22;;;;;;;9.43;5.82;;;14.20;66.90;;;;;;5020766;28;20029;-74
2022/11/13 08:30:48;;;;;;;9.48;5.88;;;14.60;66.10;;;;;;5054565;28;20032;-74
2022/11/13 08:33:13;;;;;;;9.30;5.75;;;15.10;64.80;;;;;;5054495;28;20044;-74
2022/11/13 08:35:39;;;;;;;11.65;5.85;;;15.60;63.40;;;;;;5054461;28;20030;-74
2022/11/13 08:38:07;;;;;;;9.13;6.20;;;15.90;61.90;;;;;;5020337;28;20084;-72
2022/11/13 08:40:33;;;;;;;10.05;6.03;;;16.20;61.40;;;;;;5054342;28;20053;-72
2022/11/13 08:43:00;;;;;;;11.02;6.40;;;16.40;60.30;;;;;;5054284;28;20018;-72
2022/11/13 08:45:27;;;;;;;10.02;5.97;;;16.80;59.10;;;;;;5054186;28;20077;-73
2022/11/13 08:47:52;;;;;;;10.40;6.10;;;17.10;58.00;;;;;;5054248;28;20052;-74
2022/11/13 08:50:18;;;;;;;9.60;6.13;;;17.50;56.20;;;;;;5036700;28;20473;-74
2022/11/13 08:52:44;;;;;;;8.32;5.82;;;17.60;56.30;;;;;;5036620;28;20052;-74
2022/11/13 08:55:09;;;;;;;9.55;6.28;;;17.60;55.50;;;;;;5020289;28;20523;-74
2022/11/13 08:57:35;;;;;;;11.70;5.95;;;17.90;54.10;;;;;;5036429;28;20037;-75
2022/11/13 09:00:01;;;;;;;9.48;6.18;;;18.00;53.80;;;;;;5054018;28;20033;-74
2022/11/13 09:02:26;;;;;;;11.15;7.13;;;18.20;53.60;;;;;;5053966;28;20408;-74
2022/11/13 09:04:52;;;;;;;9.35;6.57;;;18.60;52.50;;;;;;5053921;28;20060;-74
2022/11/13 09:07:18;;;;;;;10.30;6.03;;;18.80;51.50;;;;;;5036364;28;20053;-74
2022/11/13 09:09:43;;;;;;;9.65;6.30;;;18.90;52.70;;;;;;5053751;28;20025;-74
2022/11/13 09:12:09;;;;;;;11.38;6.53;;;19.00;49.80;;;;;;5019891;28;20049;-74
2022/11/13 09:14:35;;;;;;;10.75;6.40;;;19.00;49.80;;;;;;5053842;28;20036;-74
2022/11/13 09:17:02;;;;;;;12.57;6.00;;;19.10;50.30;;;;;;5053703;28;20040;-74
2022/11/13 09:19:27;;;;;;;8.90;5.63;;;19.20;49.70;;;;;;5053562;28;20026;-74
2022/11/13 09:21:53;;;;;;;8.25;5.35;;;19.00;49.70;;;;;;5053205;28;20052;-74
2022/11/13 09:24:19;;;;;;;6.97;5.13;;;18.80;50.20;;;;;;5053622;28;20032;-74
2022/11/13 09:26:45;;;;;;;8.00;4.95;;;18.50;50.70;;;;;;5036031;28;20025;-74
2022/11/13 09:29:10;;;;;;;7.07;4.80;;;18.20;51.50;;;;;;5053643;28;20033;-74
2022/11/13 09:31:39;;;;;;;8.52;5.45;;;17.90;51.90;;;;;;5053481;28;20029;-74
2022/11/13 09:34:06;;;;;;;9.77;5.72;;;17.80;53.40;;;;;;5053460;28;20045;-74
2022/11/13 09:36:31;;;;;;;9.38;5.70;;;17.70;54.60;;;;;;5053251;28;20060;-74
2022/11/13 09:38:57;;;;;;;7.00;5.50;;;17.70;54.50;;;;;;5035794;28;20033;-74
2022/11/13 09:41:28;;;;;;;7.50;5.30;;;17.70;55.10;;;;;;5035959;28;20066;-74
2022/11/13 09:43:59;;;;;;;8.90;6.07;;;17.70;54.90;;;;;;5053371;28;20077;-74
2022/11/13 09:46:52;;;;;;;8.95;6.18;;;17.60;54.60;;;;;;5053298;28;20021;-74
2022/11/13 09:49:35;;;;;;;9.30;5.97;;;17.40;55.30;;;;;;5010822;28;20038;-74
2022/11/13 09:52:18;;;;;;;7.55;5.53;;;17.30;55.50;;;;;;5053441;28;20017;-74
2022/11/13 09:54:44;;;;;;;8.23;5.00;;;17.10;55.90;;;;;;5053330;28;20022;-74
2022/11/13 09:57:19;;;;;;;9.20;5.78;;;16.90;56.40;;;;;;5053157;28;20041;-74
2022/11/13 10:00:00;;;;;;;8.60;5.93;;;16.60;55.50;;;;;;5053074;28;20105;-74
2022/11/13 10:02:55;;;;;;;8.13;5.30;;;16.40;57.00;;;;;;5053127;28;20068;-74
2022/11/13 10:05:44;;;;;;;7.68;5.00;;;16.30;57.20;;;;;;5002943;28;20038;-74
2022/11/13 10:08:20;;;;;;;7.40;5.00;;;16.20;57.20;;;;;;5053056;28;20029;-74
2022/11/13 10:10:54;;;;;;;7.78;4.95;;;16.20;57.70;;;;;;5053104;28;20029;-74
2022/11/13 10:13:37;;;;;;;7.47;5.13;;;16.30;57.90;;;;;;5053044;28;20021;-74
2022/11/13 10:16:25;;;;;;;9.10;4.78;;;16.50;57.70;;;;;;5053010;28;20022;-74
2022/11/13 10:18:54;;;;;;;7.43;4.70;;;16.60;57.70;;;;;;5053046;28;20032;-74
2022/11/13 10:21:28;;;;;;;7.20;4.85;;;16.70;57.60;;;;;;5052944;28;20042;-74
2022/11/13 10:23:55;;;;;;;7.70;4.78;;;16.80;57.80;;;;;;5052953;28;20098;-74
2022/11/13 10:26:23;;;;;;;8.82;4.97;;;16.90;58.30;;;;;;5035447;28;20032;-74
2022/11/13 10:29:07;;;;;;;7.22;5.05;;;16.90;58.20;;;;;;5035427;28;20044;-74
2022/11/13 10:31:50;;;;;;;8.65;4.55;;;17.00;58.30;;;;;;5052916;28;20141;-74
2022/11/13 10:34:17;;;;;;;6.00;4.00;;;16.90;57.50;;;;;;5038272;28;20029;-74
2022/11/13 10:37:07;;;;;;;5.40;4.00;;;16.80;57.30;;;;;;5038744;28;20046;-74
2022/11/13 10:39:41;;;;;;;5.65;4.00;;;16.70;57.30;;;;;;5056606;28;20037;-74
2022/11/13 10:42:27;;;;;;;5.60;3.72;;;16.70;57.60;;;;;;5056642;28;20487;-74
2022/11/13 10:44:59;;;;;;;4.82;3.45;;;16.70;54.60;;;;;;5056613;28;20029;-74
2022/11/13 10:47:27;;;;;;;9.65;3.80;;;16.60;54.90;;;;;;5056495;28;20021;-74
2022/11/13 10:49:55;;;;;;;8.13;4.03;;;16.50;54.50;;;;;;5056496;28;20072;-74
2022/11/13 10:52:29;;;;;;;6.90;4.30;;;16.50;56.60;;;;;;5038986;28;20030;-74
2022/11/13 10:55:13;;;;;;;6.50;4.28;;;16.60;57.50;;;;;;5056415;28;20021;-74
2022/11/13 10:57:39;;;;;;;6.63;4.18;;;16.60;56.60;;;;;;5056239;28;20085;-74
2022/11/13 11:00:31;;;;;;;5.40;3.40;;;16.60;57.20;;;;;;5039023;28;20481;-74
2022/11/13 11:02:56;;;;;;;5.22;3.30;;;16.60;54.30;;;;;;5056217;28;20358;-74
2022/11/13 11:05:24;;;;;;;5.28;3.22;;;16.60;52.40;;;;;;5056222;28;20021;-74
2022/11/13 11:07:51;;;;;;;6.95;4.25;;;16.50;53.20;;;;;;5056066;28;20026;-74
2022/11/13 11:12:14;;;;;;;5.90;4.10;;;16.50;55.20;;;;;;5038537;28;20022;-74
2022/11/13 11:13:23;;;;;;;7.22;4.13;;;16.60;56.50;;;;;;5041484;28;20067;-74
2022/11/13 11:15:56;;;;;;;4.93;3.92;;;16.70;56.90;;;;;;5055977;28;20024;-74
2022/11/13 11:18:48;;;;;;;5.35;4.05;;;16.70;56.70;;;;;;5038482;28;20105;-74
2022/11/13 11:21:21;;;;;;;6.45;3.90;;;16.80;56.30;;;;;;5055933;28;20029;-74
2022/11/13 11:23:54;;;;;;;4.85;3.55;;;16.80;55.40;;;;;;5055999;28;20033;-74
2022/11/13 11:26:41;;;;;;;5.88;3.70;;;16.80;55.50;;;;;;5055873;28;20021;-74
2022/11/13 11:29:33;;;;;;;6.60;3.67;;;16.90;55.10;;;;;;5055744;28;20493;-74
2022/11/13 11:32:14;;;;;;;5.68;3.63;;;16.90;54.20;;;;;;5055913;28;20027;-74
2022/11/13 11:34:55;;;;;;;5.40;3.72;;;16.80;50.90;;;;;;5055823;28;20089;-74
2022/11/13 11:37:26;;;;;;;6.07;3.78;;;16.80;52.70;;;;;;5055468;28;20049;-74
2022/11/13 11:39:59;;;;;;;7.35;3.33;;;16.90;52.00;;;;;;5055532;28;20045;-74
2022/11/13 11:42:29;;;;;;;6.72;3.47;;;16.90;52.60;;;;;;5037969;28;20018;-74
2022/11/13 11:45:04;;;;;;;5.60;3.90;;;17.00;53.50;;;;;;5055200;28;20089;-74
2022/11/13 11:47:32;;;;;;;6.13;3.88;;;17.10;55.20;;;;;;5037851;28;20113;-74
2022/11/13 11:49:59;;;;;;;6.07;3.65;;;17.10;53.80;;;;;;5055316;28;20026;-74
2022/11/13 11:52:43;;;;;;;5.15;3.60;;;17.20;53.60;;;;;;5055297;28;20064;-74
2022/11/13 11:55:18;;;;;;;4.15;3.08;;;17.20;52.80;;;;;;5037732;28;20034;-74
2022/11/13 11:58:14;;;;;;;5.72;3.92;;;17.20;51.30;;;;;;5055131;28;20025;-74
2022/11/13 12:00:50;;;;;;;5.13;3.20;;;17.30;51.40;;;;;;5055232;28;20022;-74
2022/11/13 12:03:44;;;;;;;5.03;3.50;;;17.30;51.50;;;;;;5055141;28;20014;-74
2022/11/13 12:06:13;;;;;;;5.28;3.28;;;17.40;52.10;;;;;;5055092;28;20029;-74
2022/11/13 12:08:51;;;;;;;5.00;3.35;;;17.50;52.20;;;;;;5037329;28;20033;-74
2022/11/13 12:11:33;;;;;;;7.13;3.70;;;17.60;51.70;;;;;;5054060;28;20025;-74
2022/11/13 12:14:16;;;;;;;5.53;3.00;;;17.70;52.10;;;;;;5021022;28;20053;-74
2022/11/13 12:17:26;;;;;;;6.22;4.35;;;17.90;52.80;;;;;;5054909;28;20029;-74
2022/11/13 12:19:55;;;;;;;7.20;4.05;;;18.00;53.00;;;;;;5054633;28;20062;-74
2022/11/13 12:22:21;;;;;;;6.63;3.97;;;18.10;53.00;;;;;;5054883;28;20068;-74
2022/11/13 12:24:58;;;;;;;5.63;3.97;;;18.10;52.70;;;;;;5037158;28;20021;-74
2022/11/13 12:27:41;;;;;;;7.13;4.10;;;18.10;52.70;;;;;;5054688;28;20026;-74
2022/11/13 12:30:42;;;;;;;5.97;3.50;;;18.10;51.70;;;;;;5054786;28;20049;-74
2022/11/13 12:33:26;;;;;;;4.23;2.90;;;18.10;51.40;;;;;;4955099;29;20044;-74
2022/11/13 12:35:53;;;;;;;4.28;3.20;;;18.00;51.70;;;;;;5046704;28;20061;-74
2022/11/13 12:38:30;;;;;;;5.53;3.25;;;17.90;52.20;;;;;;5054146;28;20049;-74
2022/11/13 12:41:02;;;;;;;6.97;3.03;;;17.90;52.50;;;;;;5036954;28;20044;-74
2022/11/13 12:43:50;;;;;;;4.90;2.97;;;17.80;51.80;;;;;;5036872;28;20021;-74
2022/11/13 12:46:16;;;;;;;4.75;2.95;;;17.70;52.70;;;;;;5054285;28;20400;-74
2022/11/13 12:48:45;;;;;;;6.25;3.08;;;17.60;52.30;;;;;;5053224;28;20021;-74
2022/11/13 12:51:17;;;;;;;4.57;2.83;;;17.50;52.60;;;;;;5053416;28;20031;-74
2022/11/13 12:53:45;;;;;;;4.88;3.17;;;17.50;53.00;;;;;;5054352;28;20037;-74
2022/11/13 12:56:19;;;;;;;4.13;2.63;;;17.50;51.90;;;;;;5035930;28;20418;-74
2022/11/13 12:59:29;;;;;;;5.00;3.03;;;17.40;52.30;;;;;;5054129;28;20089;-74
2022/11/13 13:02:34;;;;;;;4.53;3.10;;;17.40;52.40;;;;;;5053990;28;20029;-74
2022/11/13 13:05:29;;;;;;;5.65;3.63;;;17.30;51.90;;;;;;5052981;28;20092;-74